メインページ
METAR-TAF:

METAR-TAF

空港 :

アイラ島, スコットランド

緯度: 55-40-55N, 経度: 006-15-24W, 海抜: 16m

現時点の気象観測

当レポートは26分前の16:50(UTC)に作成
南/南西の風 15kt、南/南東から南西の間で変化する
気温 14°C
湿度 82%
気圧 1023 hPa
視程10km以上
高度2100ftの雲は散在している
高度2900ftの千切れ雲あり

METAR: EGPI 251650Z 20015KT 160V230 9999 SCT021 BKN029 14/11 Q1023

時間: 18:16 (17:16 UTC)

予報

当レポートは3時間16分前の14:00(UTC)に作成
予報は25日の 15時(UTC)から 25日の 18時(UTC)まで有効
の風 17kt
視程10km以上
高度2000ftの雲は散在している
25日の 15時(UTC)から 25日の 18時(UTC)まで一時的に
南/南西の風 20kt、最大30ktの突風を伴う
視程: 6000m
高度1400ftの千切れ雲あり

TAF: EGPI 251400Z 2515/2518 18017KT 9999 SCT020 TEMPO 2515/2518 20020G30KT 6000 RA BKN014

4,000以上の空港の気象観測と天気予報(METAR報とTAF報)

利用可能な観測所は地図上に黄色い丸と赤い丸で示す。

丸の上にカーソルを重ねると観測所名を参照できる。

次にクリックすると気象観測と天気予報を参照できる。

マップの切り替え:黒色「×」印の緑ボタンをクリックして拡大、「-」印の緑ボタンをクリックして縮小、緑色の三角印をクリックして隣りの地図に切り替え


METAR-TAF: